sensor_id;sensor_type;location;lat;lon;timestamp;P1;durP1;ratioP1;P2;durP2;ratioP2
23123;SDS011;11731;48.592;8.858;2024-03-02T00:01:00;8.13;;;5.33;;
23123;SDS011;11731;48.592;8.858;2024-03-02T00:03:33;7.07;;;5.23;;
23123;SDS011;11731;48.592;8.858;2024-03-02T00:05:59;7.77;;;5.40;;
23123;SDS011;11731;48.592;8.858;2024-03-02T00:08:31;6.50;;;5.23;;
23123;SDS011;11731;48.592;8.858;2024-03-02T00:11:01;9.87;;;5.70;;
23123;SDS011;11731;48.592;8.858;2024-03-02T00:13:48;8.73;;;5.63;;
23123;SDS011;11731;48.592;8.858;2024-03-02T00:17:24;8.57;;;6.47;;
23123;SDS011;11731;48.592;8.858;2024-03-02T00:19:41;8.53;;;5.93;;
23123;SDS011;11731;48.592;8.858;2024-03-02T00:22:08;9.43;;;6.27;;
23123;SDS011;11731;48.592;8.858;2024-03-02T00:25:05;10.00;;;6.50;;
23123;SDS011;11731;48.592;8.858;2024-03-02T00:27:26;8.07;;;5.60;;
23123;SDS011;11731;48.592;8.858;2024-03-02T00:29:59;7.03;;;5.13;;
23123;SDS011;11731;48.592;8.858;2024-03-02T00:32:27;6.63;;;4.80;;
23123;SDS011;11731;48.592;8.858;2024-03-02T00:35:04;7.30;;;4.93;;
23123;SDS011;11731;48.592;8.858;2024-03-02T00:37:34;9.90;;;4.70;;
23123;SDS011;11731;48.592;8.858;2024-03-02T00:40:00;9.17;;;5.37;;
23123;SDS011;11731;48.592;8.858;2024-03-02T00:42:32;6.93;;;4.93;;
23123;SDS011;11731;48.592;8.858;2024-03-02T00:45:01;8.10;;;5.43;;
23123;SDS011;11731;48.592;8.858;2024-03-02T00:47:43;8.80;;;5.40;;
23123;SDS011;11731;48.592;8.858;2024-03-02T00:53:16;7.70;;;5.60;;
23123;SDS011;11731;48.592;8.858;2024-03-02T00:55:53;7.07;;;5.77;;
23123;SDS011;11731;48.592;8.858;2024-03-02T00:58:20;7.90;;;5.70;;
23123;SDS011;11731;48.592;8.858;2024-03-02T01:00:47;8.63;;;6.07;;
23123;SDS011;11731;48.592;8.858;2024-03-02T01:03:17;8.53;;;6.13;;
23123;SDS011;11731;48.592;8.858;2024-03-02T01:05:44;9.60;;;6.67;;
23123;SDS011;11731;48.592;8.858;2024-03-02T01:08:13;9.83;;;5.53;;
23123;SDS011;11731;48.592;8.858;2024-03-02T01:10:40;12.27;;;6.10;;
23123;SDS011;11731;48.592;8.858;2024-03-02T01:13:10;9.43;;;5.70;;
23123;SDS011;11731;48.592;8.858;2024-03-02T01:15:45;7.83;;;6.20;;
23123;SDS011;11731;48.592;8.858;2024-03-02T01:18:46;8.50;;;6.17;;
23123;SDS011;11731;48.592;8.858;2024-03-02T01:21:30;10.77;;;6.10;;
23123;SDS011;11731;48.592;8.858;2024-03-02T01:23:58;9.07;;;6.87;;
23123;SDS011;11731;48.592;8.858;2024-03-02T01:26:28;14.97;;;6.33;;
23123;SDS011;11731;48.592;8.858;2024-03-02T01:28:55;9.33;;;6.47;;
23123;SDS011;11731;48.592;8.858;2024-03-02T01:38:50;9.03;;;6.27;;
23123;SDS011;11731;48.592;8.858;2024-03-02T01:46:32;9.40;;;6.60;;
23123;SDS011;11731;48.592;8.858;2024-03-02T01:49:02;10.23;;;6.97;;
23123;SDS011;11731;48.592;8.858;2024-03-02T01:54:16;8.03;;;5.70;;
23123;SDS011;11731;48.592;8.858;2024-03-02T01:56:45;9.00;;;6.13;;
23123;SDS011;11731;48.592;8.858;2024-03-02T01:59:15;10.30;;;6.63;;
23123;SDS011;11731;48.592;8.858;2024-03-02T02:01:45;9.83;;;6.40;;
23123;SDS011;11731;48.592;8.858;2024-03-02T02:04:15;10.20;;;6.90;;
23123;SDS011;11731;48.592;8.858;2024-03-02T02:12:38;9.13;;;6.83;;
23123;SDS011;11731;48.592;8.858;2024-03-02T02:17:49;13.13;;;7.47;;
23123;SDS011;11731;48.592;8.858;2024-03-02T02:20:16;9.77;;;6.13;;
23123;SDS011;11731;48.592;8.858;2024-03-02T02:22:54;9.83;;;6.70;;
23123;SDS011;11731;48.592;8.858;2024-03-02T02:25:24;10.87;;;6.40;;
23123;SDS011;11731;48.592;8.858;2024-03-02T02:27:52;9.13;;;6.30;;
23123;SDS011;11731;48.592;8.858;2024-03-02T02:30:19;9.97;;;6.60;;
23123;SDS011;11731;48.592;8.858;2024-03-02T02:32:47;10.53;;;6.80;;
23123;SDS011;11731;48.592;8.858;2024-03-02T02:35:14;9.93;;;6.87;;
23123;SDS011;11731;48.592;8.858;2024-03-02T02:37:45;12.53;;;7.20;;
23123;SDS011;11731;48.592;8.858;2024-03-02T02:40:14;9.67;;;6.33;;
23123;SDS011;11731;48.592;8.858;2024-03-02T02:42:53;11.73;;;7.37;;
23123;SDS011;11731;48.592;8.858;2024-03-02T02:45:52;13.50;;;8.07;;
23123;SDS011;11731;48.592;8.858;2024-03-02T02:48:18;14.60;;;8.83;;
23123;SDS011;11731;48.592;8.858;2024-03-02T02:50:45;11.57;;;7.57;;
23123;SDS011;11731;48.592;8.858;2024-03-02T02:55:51;14.83;;;8.47;;
23123;SDS011;11731;48.592;8.858;2024-03-02T02:58:17;11.37;;;7.40;;
23123;SDS011;11731;48.592;8.858;2024-03-02T03:00:58;12.00;;;8.40;;
23123;SDS011;11731;48.592;8.858;2024-03-02T03:03:25;14.70;;;8.27;;
23123;SDS011;11731;48.592;8.858;2024-03-02T03:05:52;12.67;;;8.17;;
23123;SDS011;11731;48.592;8.858;2024-03-02T03:08:21;15.60;;;7.90;;
23123;SDS011;11731;48.592;8.858;2024-03-02T03:10:50;11.53;;;7.50;;
23123;SDS011;11731;48.592;8.858;2024-03-02T03:13:17;12.23;;;7.83;;
23123;SDS011;11731;48.592;8.858;2024-03-02T03:16:01;10.50;;;7.37;;
23123;SDS011;11731;48.592;8.858;2024-03-02T03:21:51;13.47;;;8.13;;
23123;SDS011;11731;48.592;8.858;2024-03-02T03:24:21;12.50;;;7.83;;
23123;SDS011;11731;48.592;8.858;2024-03-02T03:27:25;10.57;;;7.37;;
23123;SDS011;11731;48.592;8.858;2024-03-02T03:29:56;12.97;;;8.03;;
23123;SDS011;11731;48.592;8.858;2024-03-02T03:32:23;11.63;;;7.67;;
23123;SDS011;11731;48.592;8.858;2024-03-02T03:34:50;11.20;;;7.23;;
23123;SDS011;11731;48.592;8.858;2024-03-02T03:37:17;13.67;;;7.90;;
23123;SDS011;11731;48.592;8.858;2024-03-02T03:39:43;11.47;;;7.53;;
23123;SDS011;11731;48.592;8.858;2024-03-02T03:42:15;10.47;;;7.10;;
23123;SDS011;11731;48.592;8.858;2024-03-02T03:44:46;13.23;;;8.27;;
23123;SDS011;11731;48.592;8.858;2024-03-02T03:47:13;13.07;;;8.20;;
23123;SDS011;11731;48.592;8.858;2024-03-02T03:49:40;13.33;;;7.70;;
23123;SDS011;11731;48.592;8.858;2024-03-02T03:52:24;16.00;;;8.60;;
23123;SDS011;11731;48.592;8.858;2024-03-02T03:55:13;12.47;;;8.10;;
23123;SDS011;11731;48.592;8.858;2024-03-02T03:57:40;12.33;;;7.83;;
23123;SDS011;11731;48.592;8.858;2024-03-02T04:02:51;13.03;;;7.70;;
23123;SDS011;11731;48.592;8.858;2024-03-02T04:05:34;13.90;;;7.33;;
23123;SDS011;11731;48.592;8.858;2024-03-02T04:08:01;14.10;;;8.10;;
23123;SDS011;11731;48.592;8.858;2024-03-02T04:10:27;13.50;;;8.47;;
23123;SDS011;11731;48.592;8.858;2024-03-02T04:12:55;15.37;;;8.80;;
23123;SDS011;11731;48.592;8.858;2024-03-02T04:15:23;17.00;;;9.53;;
23123;SDS011;11731;48.592;8.858;2024-03-02T04:17:50;13.40;;;8.70;;
23123;SDS011;11731;48.592;8.858;2024-03-02T04:20:17;12.70;;;7.83;;
23123;SDS011;11731;48.592;8.858;2024-03-02T04:22:44;12.77;;;8.13;;
23123;SDS011;11731;48.592;8.858;2024-03-02T04:25:09;13.57;;;8.53;;
23123;SDS011;11731;48.592;8.858;2024-03-02T04:27:36;13.10;;;8.67;;
23123;SDS011;11731;48.592;8.858;2024-03-02T04:30:04;13.63;;;8.77;;
23123;SDS011;11731;48.592;8.858;2024-03-02T04:32:40;13.53;;;8.37;;
23123;SDS011;11731;48.592;8.858;2024-03-02T04:35:14;11.37;;;7.83;;
23123;SDS011;11731;48.592;8.858;2024-03-02T04:37:42;12.67;;;8.77;;
23123;SDS011;11731;48.592;8.858;2024-03-02T04:40:09;13.93;;;7.97;;
23123;SDS011;11731;48.592;8.858;2024-03-02T04:42:37;14.03;;;8.13;;
23123;SDS011;11731;48.592;8.858;2024-03-02T04:45:04;14.63;;;9.07;;
23123;SDS011;11731;48.592;8.858;2024-03-02T04:47:32;13.97;;;8.27;;
23123;SDS011;11731;48.592;8.858;2024-03-02T04:50:00;14.10;;;7.67;;
23123;SDS011;11731;48.592;8.858;2024-03-02T04:52:27;14.23;;;8.00;;
23123;SDS011;11731;48.592;8.858;2024-03-02T04:54:54;10.70;;;7.43;;
23123;SDS011;11731;48.592;8.858;2024-03-02T04:57:42;12.27;;;7.50;;
23123;SDS011;11731;48.592;8.858;2024-03-02T05:00:09;11.63;;;7.73;;
23123;SDS011;11731;48.592;8.858;2024-03-02T05:02:37;13.23;;;8.80;;
23123;SDS011;11731;48.592;8.858;2024-03-02T05:05:06;15.07;;;8.70;;
23123;SDS011;11731;48.592;8.858;2024-03-02T05:07:33;11.87;;;7.90;;
23123;SDS011;11731;48.592;8.858;2024-03-02T05:10:01;14.23;;;7.73;;
23123;SDS011;11731;48.592;8.858;2024-03-02T05:12:28;13.77;;;8.33;;
23123;SDS011;11731;48.592;8.858;2024-03-02T05:15:20;13.73;;;8.00;;
23123;SDS011;11731;48.592;8.858;2024-03-02T05:17:47;11.03;;;8.47;;
23123;SDS011;11731;48.592;8.858;2024-03-02T05:20:15;13.63;;;8.17;;
23123;SDS011;11731;48.592;8.858;2024-03-02T05:22:42;11.40;;;7.77;;
23123;SDS011;11731;48.592;8.858;2024-03-02T05:25:09;17.87;;;8.33;;
23123;SDS011;11731;48.592;8.858;2024-03-02T05:27:36;14.90;;;9.07;;
23123;SDS011;11731;48.592;8.858;2024-03-02T05:30:06;17.87;;;8.97;;
23123;SDS011;11731;48.592;8.858;2024-03-02T05:32:34;13.93;;;9.13;;
23123;SDS011;11731;48.592;8.858;2024-03-02T05:35:01;15.13;;;8.70;;
23123;SDS011;11731;48.592;8.858;2024-03-02T05:40:27;19.03;;;8.90;;
23123;SDS011;11731;48.592;8.858;2024-03-02T05:42:54;15.70;;;8.90;;
23123;SDS011;11731;48.592;8.858;2024-03-02T05:45:21;14.30;;;9.27;;
23123;SDS011;11731;48.592;8.858;2024-03-02T05:47:48;23.03;;;9.77;;
23123;SDS011;11731;48.592;8.858;2024-03-02T05:50:14;14.63;;;8.83;;
23123;SDS011;11731;48.592;8.858;2024-03-02T05:52:41;15.53;;;8.60;;
23123;SDS011;11731;48.592;8.858;2024-03-02T05:55:09;12.87;;;8.80;;
23123;SDS011;11731;48.592;8.858;2024-03-02T05:57:36;14.03;;;9.00;;
23123;SDS011;11731;48.592;8.858;2024-03-02T06:00:27;15.37;;;9.00;;
23123;SDS011;11731;48.592;8.858;2024-03-02T06:02:56;13.93;;;8.10;;
23123;SDS011;11731;48.592;8.858;2024-03-02T06:05:23;17.60;;;9.57;;
23123;SDS011;11731;48.592;8.858;2024-03-02T06:07:50;15.07;;;9.33;;
23123;SDS011;11731;48.592;8.858;2024-03-02T06:10:24;15.53;;;9.20;;
23123;SDS011;11731;48.592;8.858;2024-03-02T06:12:51;14.53;;;9.17;;
23123;SDS011;11731;48.592;8.858;2024-03-02T06:15:18;15.50;;;9.57;;
23123;SDS011;11731;48.592;8.858;2024-03-02T06:17:45;18.13;;;9.00;;
23123;SDS011;11731;48.592;8.858;2024-03-02T06:20:11;16.43;;;9.33;;
23123;SDS011;11731;48.592;8.858;2024-03-02T06:22:38;14.63;;;9.30;;
23123;SDS011;11731;48.592;8.858;2024-03-02T06:25:08;15.47;;;9.13;;
23123;SDS011;11731;48.592;8.858;2024-03-02T06:27:37;18.83;;;10.27;;
23123;SDS011;11731;48.592;8.858;2024-03-02T06:30:20;16.63;;;9.70;;
23123;SDS011;11731;48.592;8.858;2024-03-02T06:32:47;17.73;;;9.93;;
23123;SDS011;11731;48.592;8.858;2024-03-02T06:35:14;18.17;;;10.37;;
23123;SDS011;11731;48.592;8.858;2024-03-02T06:37:40;20.33;;;10.27;;
23123;SDS011;11731;48.592;8.858;2024-03-02T06:40:08;15.30;;;9.50;;
23123;SDS011;11731;48.592;8.858;2024-03-02T06:42:36;17.00;;;10.37;;
23123;SDS011;11731;48.592;8.858;2024-03-02T06:45:03;14.87;;;9.10;;
23123;SDS011;11731;48.592;8.858;2024-03-02T06:47:36;20.33;;;9.70;;
23123;SDS011;11731;48.592;8.858;2024-03-02T06:51:23;17.77;;;10.17;;
23123;SDS011;11731;48.592;8.858;2024-03-02T06:53:23;14.80;;;9.07;;
23123;SDS011;11731;48.592;8.858;2024-03-02T06:55:50;16.83;;;9.63;;
23123;SDS011;11731;48.592;8.858;2024-03-02T07:01:00;16.80;;;9.07;;
23123;SDS011;11731;48.592;8.858;2024-03-02T07:06:22;16.80;;;9.70;;
23123;SDS011;11731;48.592;8.858;2024-03-02T07:08:49;19.67;;;9.40;;
23123;SDS011;11731;48.592;8.858;2024-03-02T07:11:16;23.93;;;9.90;;
23123;SDS011;11731;48.592;8.858;2024-03-02T07:13:45;23.23;;;9.47;;
23123;SDS011;11731;48.592;8.858;2024-03-02T07:16:11;34.13;;;10.10;;
23123;SDS011;11731;48.592;8.858;2024-03-02T07:18:55;25.07;;;10.77;;
23123;SDS011;11731;48.592;8.858;2024-03-02T07:21:22;36.10;;;10.43;;
23123;SDS011;11731;48.592;8.858;2024-03-02T07:23:48;24.60;;;9.97;;
23123;SDS011;11731;48.592;8.858;2024-03-02T07:26:17;37.63;;;11.57;;
23123;SDS011;11731;48.592;8.858;2024-03-02T07:28:57;17.80;;;9.00;;
23123;SDS011;11731;48.592;8.858;2024-03-02T07:31:24;12.50;;;9.00;;
23123;SDS011;11731;48.592;8.858;2024-03-02T07:36:44;13.27;;;8.90;;
23123;SDS011;11731;48.592;8.858;2024-03-02T07:39:14;17.43;;;9.90;;
23123;SDS011;11731;48.592;8.858;2024-03-02T07:41:44;19.83;;;10.53;;
23123;SDS011;11731;48.592;8.858;2024-03-02T07:44:16;16.17;;;9.53;;
23123;SDS011;11731;48.592;8.858;2024-03-02T07:46:44;14.17;;;9.60;;
23123;SDS011;11731;48.592;8.858;2024-03-02T07:49:14;12.77;;;9.10;;
23123;SDS011;11731;48.592;8.858;2024-03-02T07:52:50;17.40;;;10.67;;
23123;SDS011;11731;48.592;8.858;2024-03-02T07:55:09;16.70;;;9.80;;
23123;SDS011;11731;48.592;8.858;2024-03-02T07:58:06;16.37;;;9.73;;
23123;SDS011;11731;48.592;8.858;2024-03-02T08:00:34;18.77;;;10.53;;
23123;SDS011;11731;48.592;8.858;2024-03-02T08:03:01;17.37;;;11.07;;
23123;SDS011;11731;48.592;8.858;2024-03-02T08:05:28;17.30;;;11.37;;
23123;SDS011;11731;48.592;8.858;2024-03-02T08:07:55;16.57;;;11.03;;
23123;SDS011;11731;48.592;8.858;2024-03-02T08:10:22;18.47;;;10.43;;
23123;SDS011;11731;48.592;8.858;2024-03-02T08:12:52;17.33;;;11.20;;
23123;SDS011;11731;48.592;8.858;2024-03-02T08:15:20;23.93;;;13.00;;
23123;SDS011;11731;48.592;8.858;2024-03-02T08:17:48;18.03;;;11.67;;
23123;SDS011;11731;48.592;8.858;2024-03-02T08:20:15;17.80;;;11.73;;
23123;SDS011;11731;48.592;8.858;2024-03-02T08:22:42;19.70;;;12.27;;
23123;SDS011;11731;48.592;8.858;2024-03-02T08:25:09;19.07;;;10.70;;
23123;SDS011;11731;48.592;8.858;2024-03-02T08:27:50;18.07;;;11.37;;
23123;SDS011;11731;48.592;8.858;2024-03-02T08:30:18;20.53;;;11.97;;
23123;SDS011;11731;48.592;8.858;2024-03-02T08:32:45;20.97;;;11.27;;
23123;SDS011;11731;48.592;8.858;2024-03-02T08:35:13;19.13;;;11.90;;
23123;SDS011;11731;48.592;8.858;2024-03-02T08:37:40;20.07;;;11.73;;
23123;SDS011;11731;48.592;8.858;2024-03-02T08:40:08;18.77;;;11.33;;
23123;SDS011;11731;48.592;8.858;2024-03-02T08:42:37;18.57;;;11.50;;
23123;SDS011;11731;48.592;8.858;2024-03-02T08:45:06;18.43;;;11.80;;
23123;SDS011;11731;48.592;8.858;2024-03-02T08:47:36;18.50;;;11.87;;
23123;SDS011;11731;48.592;8.858;2024-03-02T08:50:03;19.90;;;11.23;;
23123;SDS011;11731;48.592;8.858;2024-03-02T08:55:14;18.93;;;10.80;;
23123;SDS011;11731;48.592;8.858;2024-03-02T09:01:22;21.97;;;12.70;;
23123;SDS011;11731;48.592;8.858;2024-03-02T09:06:56;17.73;;;11.00;;
23123;SDS011;11731;48.592;8.858;2024-03-02T09:09:23;15.93;;;10.57;;
23123;SDS011;11731;48.592;8.858;2024-03-02T09:12:00;17.13;;;11.17;;
23123;SDS011;11731;48.592;8.858;2024-03-02T09:14:51;13.97;;;9.93;;
23123;SDS011;11731;48.592;8.858;2024-03-02T09:17:18;16.20;;;9.90;;
23123;SDS011;11731;48.592;8.858;2024-03-02T09:19:45;13.47;;;8.60;;
23123;SDS011;11731;48.592;8.858;2024-03-02T09:22:12;14.17;;;10.03;;
23123;SDS011;11731;48.592;8.858;2024-03-02T09:24:39;15.17;;;8.93;;
23123;SDS011;11731;48.592;8.858;2024-03-02T09:27:08;13.00;;;8.63;;
23123;SDS011;11731;48.592;8.858;2024-03-02T09:29:35;12.23;;;8.63;;
23123;SDS011;11731;48.592;8.858;2024-03-02T09:34:11;11.53;;;8.23;;
23123;SDS011;11731;48.592;8.858;2024-03-02T09:35:21;11.43;;;8.13;;
23123;SDS011;11731;48.592;8.858;2024-03-02T09:47:35;9.43;;;6.57;;
23123;SDS011;11731;48.592;8.858;2024-03-02T09:50:02;10.90;;;6.73;;
23123;SDS011;11731;48.592;8.858;2024-03-02T09:52:29;10.20;;;6.83;;
23123;SDS011;11731;48.592;8.858;2024-03-02T09:54:57;10.57;;;7.17;;
23123;SDS011;11731;48.592;8.858;2024-03-02T09:57:38;8.73;;;6.73;;
23123;SDS011;11731;48.592;8.858;2024-03-02T10:00:07;8.43;;;6.60;;
23123;SDS011;11731;48.592;8.858;2024-03-02T10:11:27;7.77;;;5.70;;
23123;SDS011;11731;48.592;8.858;2024-03-02T11:42:09;3.80;;;2.53;;
23123;SDS011;11731;48.592;8.858;2024-03-02T11:45:04;3.00;;;2.67;;
23123;SDS011;11731;48.592;8.858;2024-03-02T12:48:34;1.63;;;1.40;;
23123;SDS011;11731;48.592;8.858;2024-03-02T12:56:28;3.13;;;1.30;;
23123;SDS011;11731;48.592;8.858;2024-03-02T12:58:55;1.53;;;1.30;;
23123;SDS011;11731;48.592;8.858;2024-03-02T13:01:22;3.70;;;1.50;;
23123;SDS011;11731;48.592;8.858;2024-03-02T13:03:49;1.20;;;1.10;;
23123;SDS011;11731;48.592;8.858;2024-03-02T13:06:17;2.00;;;1.30;;
23123;SDS011;11731;48.592;8.858;2024-03-02T13:08:45;1.97;;;1.20;;
23123;SDS011;11731;48.592;8.858;2024-03-02T13:11:15;1.63;;;1.40;;
23123;SDS011;11731;48.592;8.858;2024-03-02T13:13:42;1.77;;;1.40;;
23123;SDS011;11731;48.592;8.858;2024-03-02T13:16:09;1.30;;;1.20;;
23123;SDS011;11731;48.592;8.858;2024-03-02T13:18:40;1.63;;;1.53;;
23123;SDS011;11731;48.592;8.858;2024-03-02T13:21:07;1.47;;;1.37;;
23123;SDS011;11731;48.592;8.858;2024-03-02T13:23:34;1.90;;;1.40;;
23123;SDS011;11731;48.592;8.858;2024-03-02T13:26:01;2.07;;;1.47;;
23123;SDS011;11731;48.592;8.858;2024-03-02T13:28:30;1.50;;;1.40;;
23123;SDS011;11731;48.592;8.858;2024-03-02T13:31:02;1.83;;;1.60;;
23123;SDS011;11731;48.592;8.858;2024-03-02T13:33:30;1.67;;;1.30;;
23123;SDS011;11731;48.592;8.858;2024-03-02T13:35:58;1.43;;;1.20;;
23123;SDS011;11731;48.592;8.858;2024-03-02T13:38:25;2.00;;;1.63;;
23123;SDS011;11731;48.592;8.858;2024-03-02T13:40:52;1.97;;;1.47;;
23123;SDS011;11731;48.592;8.858;2024-03-02T13:43:19;3.20;;;1.60;;
23123;SDS011;11731;48.592;8.858;2024-03-02T13:45:47;1.90;;;1.50;;
23123;SDS011;11731;48.592;8.858;2024-03-02T13:49:16;2.40;;;1.60;;
23123;SDS011;11731;48.592;8.858;2024-03-02T13:51:20;1.73;;;1.37;;
23123;SDS011;11731;48.592;8.858;2024-03-02T13:53:47;1.70;;;1.37;;
23123;SDS011;11731;48.592;8.858;2024-03-02T13:56:13;1.90;;;1.73;;
23123;SDS011;11731;48.592;8.858;2024-03-02T13:58:41;1.93;;;1.47;;
23123;SDS011;11731;48.592;8.858;2024-03-02T14:01:13;2.10;;;1.53;;
23123;SDS011;11731;48.592;8.858;2024-03-02T14:03:40;1.40;;;1.30;;
23123;SDS011;11731;48.592;8.858;2024-03-02T14:06:08;2.23;;;1.50;;
23123;SDS011;11731;48.592;8.858;2024-03-02T14:08:35;2.40;;;1.70;;
23123;SDS011;11731;48.592;8.858;2024-03-02T14:11:02;1.60;;;1.33;;
23123;SDS011;11731;48.592;8.858;2024-03-02T14:13:34;1.60;;;1.50;;
23123;SDS011;11731;48.592;8.858;2024-03-02T14:16:16;3.60;;;1.47;;
23123;SDS011;11731;48.592;8.858;2024-03-02T14:19:13;1.80;;;1.40;;
23123;SDS011;11731;48.592;8.858;2024-03-02T14:21:34;2.00;;;1.40;;
23123;SDS011;11731;48.592;8.858;2024-03-02T14:24:01;1.87;;;1.40;;
23123;SDS011;11731;48.592;8.858;2024-03-02T14:26:48;1.63;;;1.53;;
23123;SDS011;11731;48.592;8.858;2024-03-02T14:32:33;1.40;;;1.30;;
23123;SDS011;11731;48.592;8.858;2024-03-02T14:35:31;1.27;;;1.07;;
23123;SDS011;11731;48.592;8.858;2024-03-02T14:37:49;3.23;;;1.50;;
23123;SDS011;11731;48.592;8.858;2024-03-02T14:40:16;1.90;;;1.30;;
23123;SDS011;11731;48.592;8.858;2024-03-02T14:42:43;1.67;;;1.40;;
23123;SDS011;11731;48.592;8.858;2024-03-02T14:45:29;2.23;;;1.40;;
23123;SDS011;11731;48.592;8.858;2024-03-02T14:47:58;1.67;;;1.57;;
23123;SDS011;11731;48.592;8.858;2024-03-02T14:50:25;1.97;;;1.60;;
23123;SDS011;11731;48.592;8.858;2024-03-02T14:52:52;1.70;;;1.50;;
23123;SDS011;11731;48.592;8.858;2024-03-02T14:55:22;2.03;;;1.57;;
23123;SDS011;11731;48.592;8.858;2024-03-02T14:57:49;1.80;;;1.53;;
23123;SDS011;11731;48.592;8.858;2024-03-02T15:00:16;1.93;;;1.43;;
23123;SDS011;11731;48.592;8.858;2024-03-02T15:02:43;1.77;;;1.60;;
23123;SDS011;11731;48.592;8.858;2024-03-02T15:05:12;3.03;;;1.60;;
23123;SDS011;11731;48.592;8.858;2024-03-02T15:07:39;2.83;;;1.70;;
23123;SDS011;11731;48.592;8.858;2024-03-02T15:10:07;1.80;;;1.50;;
23123;SDS011;11731;48.592;8.858;2024-03-02T15:12:34;1.97;;;1.50;;
23123;SDS011;11731;48.592;8.858;2024-03-02T15:15:01;1.70;;;1.43;;
23123;SDS011;11731;48.592;8.858;2024-03-02T15:17:27;3.67;;;1.50;;
23123;SDS011;11731;48.592;8.858;2024-03-02T15:19:54;1.73;;;1.30;;
23123;SDS011;11731;48.592;8.858;2024-03-02T15:22:23;1.30;;;1.20;;
23123;SDS011;11731;48.592;8.858;2024-03-02T15:24:50;1.50;;;1.10;;
23123;SDS011;11731;48.592;8.858;2024-03-02T15:27:17;1.43;;;1.20;;
23123;SDS011;11731;48.592;8.858;2024-03-02T15:29:44;1.20;;;1.10;;
23123;SDS011;11731;48.592;8.858;2024-03-02T15:32:13;1.40;;;1.20;;
23123;SDS011;11731;48.592;8.858;2024-03-02T15:34:40;1.67;;;1.37;;
23123;SDS011;11731;48.592;8.858;2024-03-02T15:37:08;1.60;;;1.40;;
23123;SDS011;11731;48.592;8.858;2024-03-02T15:39:36;3.10;;;1.50;;
23123;SDS011;11731;48.592;8.858;2024-03-02T15:42:03;1.60;;;1.40;;
23123;SDS011;11731;48.592;8.858;2024-03-02T15:44:30;2.20;;;1.37;;
23123;SDS011;11731;48.592;8.858;2024-03-02T15:46:57;1.50;;;1.40;;
23123;SDS011;11731;48.592;8.858;2024-03-02T15:49:24;2.10;;;1.80;;
23123;SDS011;11731;48.592;8.858;2024-03-02T15:51:52;1.67;;;1.50;;
23123;SDS011;11731;48.592;8.858;2024-03-02T15:54:19;1.20;;;1.10;;
23123;SDS011;11731;48.592;8.858;2024-03-02T15:56:47;3.13;;;1.73;;
23123;SDS011;11731;48.592;8.858;2024-03-02T15:59:14;2.70;;;1.37;;
23123;SDS011;11731;48.592;8.858;2024-03-02T16:01:41;2.10;;;1.53;;
23123;SDS011;11731;48.592;8.858;2024-03-02T16:04:08;2.17;;;1.20;;
23123;SDS011;11731;48.592;8.858;2024-03-02T16:06:35;1.53;;;1.30;;
23123;SDS011;11731;48.592;8.858;2024-03-02T16:09:02;1.90;;;1.20;;
23123;SDS011;11731;48.592;8.858;2024-03-02T16:11:30;3.80;;;1.30;;
23123;SDS011;11731;48.592;8.858;2024-03-02T16:14:00;1.70;;;1.20;;
23123;SDS011;11731;48.592;8.858;2024-03-02T16:16:27;2.33;;;1.23;;
23123;SDS011;11731;48.592;8.858;2024-03-02T16:18:54;1.60;;;1.20;;
23123;SDS011;11731;48.592;8.858;2024-03-02T16:21:21;1.33;;;1.20;;
23123;SDS011;11731;48.592;8.858;2024-03-02T16:23:50;1.73;;;1.20;;
23123;SDS011;11731;48.592;8.858;2024-03-02T16:26:17;1.73;;;1.47;;
23123;SDS011;11731;48.592;8.858;2024-03-02T16:28:44;1.67;;;1.23;;
23123;SDS011;11731;48.592;8.858;2024-03-02T16:31:12;1.10;;;1.00;;
23123;SDS011;11731;48.592;8.858;2024-03-02T16:33:40;1.50;;;1.00;;
23123;SDS011;11731;48.592;8.858;2024-03-02T16:36:07;1.20;;;1.03;;
23123;SDS011;11731;48.592;8.858;2024-03-02T16:38:34;3.93;;;1.40;;
23123;SDS011;11731;48.592;8.858;2024-03-02T16:41:01;3.07;;;2.47;;
23123;SDS011;11731;48.592;8.858;2024-03-02T16:43:29;5.23;;;3.20;;
23123;SDS011;11731;48.592;8.858;2024-03-02T16:45:56;4.50;;;3.20;;
23123;SDS011;11731;48.592;8.858;2024-03-02T16:48:24;4.63;;;2.90;;
23123;SDS011;11731;48.592;8.858;2024-03-02T16:50:51;2.67;;;2.10;;
23123;SDS011;11731;48.592;8.858;2024-03-02T16:53:18;1.83;;;1.67;;
23123;SDS011;11731;48.592;8.858;2024-03-02T16:55:45;3.43;;;1.73;;
23123;SDS011;11731;48.592;8.858;2024-03-02T16:58:12;2.90;;;1.77;;
23123;SDS011;11731;48.592;8.858;2024-03-02T17:00:39;2.63;;;1.70;;
23123;SDS011;11731;48.592;8.858;2024-03-02T17:03:06;3.33;;;1.53;;
23123;SDS011;11731;48.592;8.858;2024-03-02T17:05:35;2.93;;;1.60;;
23123;SDS011;11731;48.592;8.858;2024-03-02T17:08:02;3.27;;;1.83;;
23123;SDS011;11731;48.592;8.858;2024-03-02T17:10:29;2.23;;;1.70;;
23123;SDS011;11731;48.592;8.858;2024-03-02T17:12:56;3.70;;;1.83;;
23123;SDS011;11731;48.592;8.858;2024-03-02T17:15:24;3.20;;;1.50;;
23123;SDS011;11731;48.592;8.858;2024-03-02T17:17:51;2.30;;;1.80;;
23123;SDS011;11731;48.592;8.858;2024-03-02T17:20:18;3.60;;;2.30;;
23123;SDS011;11731;48.592;8.858;2024-03-02T17:22:46;2.73;;;2.20;;
23123;SDS011;11731;48.592;8.858;2024-03-02T17:25:13;2.53;;;1.90;;
23123;SDS011;11731;48.592;8.858;2024-03-02T17:27:40;1.80;;;1.60;;
23123;SDS011;11731;48.592;8.858;2024-03-02T17:30:08;4.07;;;1.67;;
23123;SDS011;11731;48.592;8.858;2024-03-02T17:32:35;2.07;;;1.50;;
23123;SDS011;11731;48.592;8.858;2024-03-02T17:35:03;2.60;;;1.60;;
23123;SDS011;11731;48.592;8.858;2024-03-02T17:37:30;4.27;;;1.90;;
23123;SDS011;11731;48.592;8.858;2024-03-02T17:40:00;3.40;;;2.40;;
23123;SDS011;11731;48.592;8.858;2024-03-02T17:42:27;2.47;;;1.80;;
23123;SDS011;11731;48.592;8.858;2024-03-02T17:44:54;2.90;;;1.83;;
23123;SDS011;11731;48.592;8.858;2024-03-02T17:47:21;2.67;;;1.87;;
23123;SDS011;11731;48.592;8.858;2024-03-02T17:49:48;2.53;;;1.90;;
23123;SDS011;11731;48.592;8.858;2024-03-02T17:52:15;2.27;;;1.90;;
23123;SDS011;11731;48.592;8.858;2024-03-02T17:54:42;3.20;;;2.20;;
23123;SDS011;11731;48.592;8.858;2024-03-02T17:57:11;4.43;;;2.13;;
23123;SDS011;11731;48.592;8.858;2024-03-02T17:59:37;2.93;;;2.40;;
23123;SDS011;11731;48.592;8.858;2024-03-02T18:02:04;2.77;;;2.17;;
23123;SDS011;11731;48.592;8.858;2024-03-02T18:04:33;2.83;;;2.20;;
23123;SDS011;11731;48.592;8.858;2024-03-02T18:07:00;2.90;;;2.30;;
23123;SDS011;11731;48.592;8.858;2024-03-02T18:09:27;2.80;;;2.50;;
23123;SDS011;11731;48.592;8.858;2024-03-02T18:11:54;3.37;;;2.47;;
23123;SDS011;11731;48.592;8.858;2024-03-02T18:14:23;2.50;;;2.30;;
23123;SDS011;11731;48.592;8.858;2024-03-02T18:16:50;4.23;;;2.93;;
23123;SDS011;11731;48.592;8.858;2024-03-02T18:19:17;3.83;;;2.90;;
23123;SDS011;11731;48.592;8.858;2024-03-02T18:21:43;3.90;;;2.97;;
23123;SDS011;11731;48.592;8.858;2024-03-02T18:24:11;5.47;;;3.50;;
23123;SDS011;11731;48.592;8.858;2024-03-02T18:26:38;4.73;;;3.87;;
23123;SDS011;11731;48.592;8.858;2024-03-02T18:29:06;8.53;;;4.70;;
23123;SDS011;11731;48.592;8.858;2024-03-02T18:31:35;7.67;;;5.27;;
23123;SDS011;11731;48.592;8.858;2024-03-02T18:34:02;4.53;;;3.57;;
23123;SDS011;11731;48.592;8.858;2024-03-02T18:36:29;4.03;;;3.23;;
23123;SDS011;11731;48.592;8.858;2024-03-02T18:38:56;4.07;;;3.27;;
23123;SDS011;11731;48.592;8.858;2024-03-02T18:41:23;4.93;;;3.10;;
23123;SDS011;11731;48.592;8.858;2024-03-02T18:43:50;5.47;;;3.47;;
23123;SDS011;11731;48.592;8.858;2024-03-02T18:46:17;4.30;;;3.27;;
23123;SDS011;11731;48.592;8.858;2024-03-02T18:48:45;3.97;;;3.17;;
23123;SDS011;11731;48.592;8.858;2024-03-02T18:51:12;4.63;;;3.00;;